Time,TemperatureF,DewpointF,PressureIn,WindDirection,WindDirectionDegrees,WindSpeedMPH,WindSpeedGustMPH,Humidity,HourlyPrecipIn,Conditions,Clouds,dailyrainin,SoftwareType,DateUTC
2013-06-18 00:01:00,62.2,61.2,29.93,NW,307,0.0,1.0,96,0.00,,,0.00,meteohub,2013-06-18 04:01:00,
2013-06-18 00:03:00,62.1,61.0,29.93,NW,307,0.0,1.0,96,0.00,,,0.00,meteohub,2013-06-18 04:03:00,
2013-06-18 00:08:00,62.1,61.0,29.93,NW,307,0.0,0.0,96,0.00,,,0.00,meteohub,2013-06-18 04:08:00,
2013-06-18 00:13:00,62.1,61.0,29.93,NW,307,0.0,0.0,96,0.00,,,0.00,meteohub,2013-06-18 04:13:00,
2013-06-18 00:18:00,62.1,61.0,29.93,NW,304,0.0,0.0,96,0.00,,,0.00,meteohub,2013-06-18 04:18:00,
2013-06-18 00:23:00,62.1,61.0,29.93,NW,305,0.0,0.0,96,0.00,,,0.00,meteohub,2013-06-18 04:23:00,
2013-06-18 00:28:00,62.2,61.2,29.93,NW,305,0.0,0.0,96,0.00,,,0.00,meteohub,2013-06-18 04:28:00,
2013-06-18 00:33:00,62.1,61.0,29.92,NW,305,0.0,0.0,96,0.00,,,0.00,meteohub,2013-06-18 04:33:00,
2013-06-18 00:38:00,62.1,61.0,29.92,NW,305,0.0,0.0,96,0.00,,,0.00,meteohub,2013-06-18 04:38:00,
2013-06-18 00:43:00,62.2,61.2,29.92,NW,305,0.0,0.0,96,0.00,,,0.00,meteohub,2013-06-18 04:43:00,
2013-06-18 00:48:00,62.2,61.2,29.92,NW,305,0.0,0.0,96,0.00,,,0.00,meteohub,2013-06-18 04:48:00,
2013-06-18 00:53:00,62.2,61.2,29.92,NW,304,0.0,0.0,96,0.00,,,0.00,meteohub,2013-06-18 04:53:00,
2013-06-18 00:58:00,62.2,61.2,29.92,NW,305,0.0,0.0,96,0.00,,,0.00,meteohub,2013-06-18 04:58:00,
2013-06-18 01:03:00,62.2,61.2,29.92,NW,305,0.0,0.0,96,0.00,,,0.00,meteohub,2013-06-18 05:03:00,
2013-06-18 01:08:00,62.4,61.3,29.92,NW,305,0.0,0.0,96,0.00,,,0.00,meteohub,2013-06-18 05:08:00,
2013-06-18 01:13:00,62.4,61.3,29.92,NW,305,0.0,0.0,96,0.00,,,0.00,meteohub,2013-06-18 05:13:00,
2013-06-18 01:18:00,62.4,61.3,29.92,NW,304,0.0,0.0,96,0.00,,,0.00,meteohub,2013-06-18 05:18:00,
2013-06-18 01:23:00,62.2,61.2,29.92,NW,304,0.0,0.0,96,0.00,,,0.00,meteohub,2013-06-18 05:23:00,
2013-06-18 01:28:00,62.1,61.0,29.92,NW,309,0.0,0.0,96,0.00,,,0.00,meteohub,2013-06-18 05:28:00,
2013-06-18 01:33:00,62.1,61.0,29.91,NW,309,0.0,0.0,96,0.00,,,0.00,meteohub,2013-06-18 05:33:00,
2013-06-18 01:38:00,61.9,60.8,29.91,NW,309,0.0,0.0,96,0.00,,,0.00,meteohub,2013-06-18 05:38:00,
2013-06-18 01:43:00,61.9,60.8,29.91,NW,309,0.0,0.0,96,0.00,,,0.00,meteohub,2013-06-18 05:43:00,
2013-06-18 01:48:00,61.5,60.6,29.91,NNW,346,0.0,0.0,97,0.00,,,0.00,meteohub,2013-06-18 05:48:00,
2013-06-18 01:53:00,61.3,60.4,29.91,NNW,344,0.0,0.0,97,0.00,,,0.00,meteohub,2013-06-18 05:53:00,
2013-06-18 01:58:00,61.5,60.6,29.91,NNW,340,0.0,0.0,97,0.00,,,0.00,meteohub,2013-06-18 05:58:00,
2013-06-18 02:03:00,61.3,60.4,29.91,NNW,340,0.0,0.0,97,0.00,,,0.00,meteohub,2013-06-18 06:03:00,
2013-06-18 02:08:00,61.3,60.4,29.91,NNW,340,0.0,0.0,97,0.00,,,0.00,meteohub,2013-06-18 06:08:00,
2013-06-18 02:13:00,61.2,60.3,29.91,NNW,340,0.0,0.0,97,0.00,,,0.00,meteohub,2013-06-18 06:13:00,
2013-06-18 02:18:00,61.0,60.1,29.91,NNW,340,0.0,0.0,97,0.00,,,0.00,meteohub,2013-06-18 06:18:00,
2013-06-18 02:23:00,61.0,60.4,29.91,NNW,340,0.0,0.0,98,0.00,,,0.00,meteohub,2013-06-18 06:23:00,
2013-06-18 02:29:00,61.0,60.4,29.91,NNW,340,0.0,0.0,98,0.00,,,0.00,meteohub,2013-06-18 06:29:00,
2013-06-18 02:34:00,61.0,60.4,29.91,NNW,333,0.0,0.0,98,0.00,,,0.00,meteohub,2013-06-18 06:34:00,
2013-06-18 02:39:00,61.0,60.4,29.91,NNW,333,0.0,0.0,98,0.00,,,0.00,meteohub,2013-06-18 06:39:00,
2013-06-18 02:44:00,61.0,60.4,29.91,NNW,332,0.0,0.0,98,0.00,,,0.00,meteohub,2013-06-18 06:44:00,
2013-06-18 02:49:00,61.0,60.4,29.91,NNW,332,0.0,0.0,98,0.00,,,0.00,meteohub,2013-06-18 06:49:00,
2013-06-18 02:54:00,60.6,60.1,29.91,NNW,333,0.0,0.0,98,0.00,,,0.00,meteohub,2013-06-18 06:54:00,
2013-06-18 02:59:00,60.4,59.9,29.91,NNW,332,0.0,0.0,98,0.00,,,0.00,meteohub,2013-06-18 06:59:00,
2013-06-18 03:04:00,60.4,59.9,29.91,NNW,332,0.0,0.0,98,0.00,,,0.00,meteohub,2013-06-18 07:04:00,
2013-06-18 03:09:00,60.4,59.9,29.91,NNW,332,0.0,0.0,98,0.00,,,0.00,meteohub,2013-06-18 07:09:00,
2013-06-18 03:14:00,60.4,59.9,29.91,NNW,332,0.0,0.0,98,0.00,,,0.00,meteohub,2013-06-18 07:14:00,
2013-06-18 03:19:00,60.4,59.9,29.91,NNW,333,0.0,0.0,98,0.00,,,0.00,meteohub,2013-06-18 07:19:00,
2013-06-18 03:24:00,60.3,59.7,29.91,NNW,332,0.0,0.0,98,0.00,,,0.00,meteohub,2013-06-18 07:24:00,
2013-06-18 03:29:00,60.3,59.7,29.91,NNW,333,0.0,0.0,98,0.00,,,0.00,meteohub,2013-06-18 07:29:00,
2013-06-18 03:34:00,60.3,59.7,29.91,NNW,333,0.0,0.0,98,0.00,,,0.00,meteohub,2013-06-18 07:34:00,
2013-06-18 03:39:00,60.3,59.7,29.91,NNW,333,0.0,0.0,98,0.00,,,0.00,meteohub,2013-06-18 07:39:00,
2013-06-18 03:44:00,60.3,59.7,29.91,NNW,333,0.0,0.0,98,0.00,,,0.00,meteohub,2013-06-18 07:44:00,
2013-06-18 03:49:00,60.1,59.5,29.91,NNW,333,0.0,0.0,98,0.00,,,0.00,meteohub,2013-06-18 07:49:00,
2013-06-18 03:54:00,60.1,59.5,29.91,NNW,332,0.0,0.0,98,0.00,,,0.00,meteohub,2013-06-18 07:54:00,
2013-06-18 03:59:00,59.9,59.4,29.91,NNW,333,0.0,0.0,98,0.00,,,0.00,meteohub,2013-06-18 07:59:00,
2013-06-18 04:04:00,59.9,59.4,29.91,NNW,333,0.0,0.0,98,0.00,,,0.00,meteohub,2013-06-18 08:04:00,
2013-06-18 04:09:00,59.9,59.4,29.91,NNW,333,0.0,0.0,98,0.00,,,0.00,meteohub,2013-06-18 08:09:00,
2013-06-18 04:14:00,59.7,59.2,29.91,NNW,333,0.0,0.0,98,0.00,,,0.00,meteohub,2013-06-18 08:14:00,
2013-06-18 04:19:00,59.9,59.5,29.91,NNW,333,0.0,0.0,99,0.00,,,0.00,meteohub,2013-06-18 08:19:00,
2013-06-18 04:24:00,60.1,59.7,29.91,NNW,333,0.0,0.0,99,0.00,,,0.00,meteohub,2013-06-18 08:24:00,
2013-06-18 04:29:00,60.1,59.7,29.91,NNW,333,0.0,0.0,99,0.00,,,0.00,meteohub,2013-06-18 08:29:00,
2013-06-18 04:34:00,59.9,59.4,29.91,NNW,333,0.0,0.0,98,0.00,,,0.00,meteohub,2013-06-18 08:34:00,
2013-06-18 04:39:00,59.7,59.4,29.91,NNW,333,0.0,0.0,99,0.00,,,0.00,meteohub,2013-06-18 08:39:00,
2013-06-18 04:44:00,59.7,59.2,29.91,NNW,333,0.0,0.0,98,0.00,,,0.00,meteohub,2013-06-18 08:44:00,
2013-06-18 04:49:00,59.7,59.4,29.91,NNW,333,0.0,0.0,99,0.00,,,0.00,meteohub,2013-06-18 08:49:00,
2013-06-18 04:54:00,59.4,58.8,29.91,NNW,333,0.0,0.0,98,0.00,,,0.00,meteohub,2013-06-18 08:54:00,
2013-06-18 04:59:00,59.4,59.0,29.91,NNW,333,0.0,0.0,99,0.00,,,0.00,meteohub,2013-06-18 08:59:00,
2013-06-18 05:05:00,59.5,59.2,29.91,NNW,333,0.0,0.0,99,0.00,,,0.00,meteohub,2013-06-18 09:05:00,
2013-06-18 05:10:00,59.5,59.2,29.91,NW,326,0.0,0.0,99,0.00,,,0.00,meteohub,2013-06-18 09:10:00,
2013-06-18 05:15:00,59.7,59.4,29.91,NNW,327,0.0,1.0,99,0.00,,,0.00,meteohub,2013-06-18 09:15:00,
2013-06-18 05:20:00,59.7,59.4,29.91,NNW,328,0.0,1.0,99,0.00,,,0.00,meteohub,2013-06-18 09:20:00,
2013-06-18 05:25:00,59.7,59.4,29.91,East,94,0.0,1.0,99,0.00,,,0.00,meteohub,2013-06-18 09:25:00,
2013-06-18 05:30:00,59.5,59.2,29.91,SE,125,0.0,1.0,99,0.00,,,0.00,meteohub,2013-06-18 09:30:00,
2013-06-18 05:35:00,59.5,59.2,29.91,SE,126,0.0,1.0,99,0.00,,,0.00,meteohub,2013-06-18 09:35:00,
2013-06-18 05:40:00,59.7,59.4,29.92,SE,126,0.0,1.0,99,0.00,,,0.00,meteohub,2013-06-18 09:40:00,
2013-06-18 05:45:00,59.7,59.4,29.92,SE,126,0.0,1.0,99,0.00,,,0.00,meteohub,2013-06-18 09:45:00,
2013-06-18 05:50:00,59.5,59.2,29.92,SE,126,0.0,0.0,99,0.00,,,0.00,meteohub,2013-06-18 09:50:00,
2013-06-18 05:55:00,59.5,59.2,29.92,SE,126,0.0,0.0,99,0.00,,,0.00,meteohub,2013-06-18 09:55:00,
2013-06-18 06:00:00,59.7,59.4,29.92,SE,125,0.0,0.0,99,0.00,,,0.00,meteohub,2013-06-18 10:00:00,
2013-06-18 06:05:00,60.3,59.9,29.92,SE,125,0.0,0.0,99,0.00,,,0.00,meteohub,2013-06-18 10:05:00,
2013-06-18 06:10:00,60.8,60.4,29.92,SE,126,0.0,0.0,99,0.00,,,0.00,meteohub,2013-06-18 10:10:00,
2013-06-18 06:15:00,61.3,60.8,29.92,SE,126,0.0,0.0,98,0.00,,,0.00,meteohub,2013-06-18 10:15:00,
2013-06-18 06:20:00,61.5,61.0,29.92,SE,126,0.0,0.0,98,0.00,,,0.00,meteohub,2013-06-18 10:20:00,
2013-06-18 06:25:00,61.9,61.3,29.92,SE,125,0.0,0.0,98,0.00,,,0.00,meteohub,2013-06-18 10:25:00,
2013-06-18 06:30:00,61.9,61.0,29.92,NW,319,0.0,0.0,97,0.00,,,0.00,meteohub,2013-06-18 10:30:00,
2013-06-18 06:35:00,62.2,61.3,29.91,NNW,328,0.0,1.0,97,0.00,,,0.00,meteohub,2013-06-18 10:35:00,
2013-06-18 06:40:00,62.8,61.9,29.92,NNW,330,0.0,1.0,97,0.00,,,0.00,meteohub,2013-06-18 10:40:00,
2013-06-18 06:45:00,63.5,62.6,29.92,NNW,332,0.0,1.0,97,0.00,,,0.00,meteohub,2013-06-18 10:45:00,
2013-06-18 06:50:00,64.8,63.7,29.92,NNW,330,0.0,1.0,96,0.00,,,0.00,meteohub,2013-06-18 10:50:00,
2013-06-18 06:55:00,65.7,63.9,29.92,NNW,330,0.0,1.0,94,0.00,,,0.00,meteohub,2013-06-18 10:55:00,
2013-06-18 07:00:00,66.4,63.7,29.92,NNW,330,0.0,1.0,91,0.00,,,0.00,meteohub,2013-06-18 11:00:00,
2013-06-18 07:05:00,67.3,64.2,29.92,NNW,330,0.0,1.0,90,0.00,,,0.00,meteohub,2013-06-18 11:05:00,
2013-06-18 07:10:00,68.0,64.4,29.92,NNW,337,0.0,0.0,88,0.00,,,0.00,meteohub,2013-06-18 11:10:00,
2013-06-18 07:16:00,68.7,64.8,29.92,ESE,122,0.0,0.0,87,0.00,,,0.00,meteohub,2013-06-18 11:16:00,
2013-06-18 07:21:00,68.7,64.4,29.92,ESE,122,0.0,0.0,86,0.00,,,0.00,meteohub,2013-06-18 11:21:00,
2013-06-18 07:26:00,69.6,64.9,29.93,SE,125,0.0,1.0,85,0.00,,,0.00,meteohub,2013-06-18 11:26:00,
2013-06-18 07:31:00,70.0,65.3,29.93,South,179,0.0,1.0,85,0.00,,,0.00,meteohub,2013-06-18 11:31:00,
2013-06-18 07:36:00,70.2,65.1,29.93,SSE,158,0.0,0.0,84,0.00,,,0.00,meteohub,2013-06-18 11:36:00,
2013-06-18 07:41:00,70.9,65.5,29.93,SSW,201,0.0,0.0,83,0.00,,,0.00,meteohub,2013-06-18 11:41:00,
2013-06-18 07:46:00,71.4,65.3,29.93,South,174,0.0,0.0,81,0.00,,,0.00,meteohub,2013-06-18 11:46:00,
2013-06-18 07:51:00,71.2,64.8,29.93,SSW,212,0.0,2.0,80,0.00,,,0.00,meteohub,2013-06-18 11:51:00,
2013-06-18 07:56:00,70.9,65.1,29.93,South,175,2.0,4.0,82,0.00,,,0.00,meteohub,2013-06-18 11:56:00,
2013-06-18 08:01:00,70.9,65.1,29.93,SSW,211,0.0,4.0,82,0.00,,,0.00,meteohub,2013-06-18 12:01:00,
2013-06-18 08:06:00,70.9,65.1,29.93,SSW,201,1.0,4.0,82,0.00,,,0.00,meteohub,2013-06-18 12:06:00,
2013-06-18 08:11:00,70.9,65.1,29.93,SW,217,1.0,3.0,82,0.00,,,0.00,meteohub,2013-06-18 12:11:00,
2013-06-18 08:16:00,70.9,65.5,29.93,SSW,200,0.0,2.0,83,0.00,,,0.00,meteohub,2013-06-18 12:16:00,
2013-06-18 08:21:00,71.4,66.0,29.93,SSE,159,0.0,2.0,83,0.00,,,0.00,meteohub,2013-06-18 12:21:00,
2013-06-18 08:26:00,72.0,66.2,29.92,SSE,167,0.0,2.0,82,0.00,,,0.00,meteohub,2013-06-18 12:26:00,
2013-06-18 08:31:00,72.7,66.6,29.93,SSW,207,2.0,2.0,81,0.00,,,0.00,meteohub,2013-06-18 12:31:00,
2013-06-18 08:36:00,72.3,66.6,29.92,SSE,159,2.0,2.0,82,0.00,,,0.00,meteohub,2013-06-18 12:36:00,
2013-06-18 08:41:00,72.9,66.7,29.93,South,180,2.0,2.0,81,0.00,,,0.00,meteohub,2013-06-18 12:41:00,
2013-06-18 08:46:00,73.0,66.6,29.93,SSW,200,3.0,3.0,80,0.00,,,0.00,meteohub,2013-06-18 12:46:00,
2013-06-18 08:51:00,73.0,66.6,29.93,South,181,2.0,3.0,80,0.00,,,0.00,meteohub,2013-06-18 12:51:00,
2013-06-18 08:56:00,73.0,66.9,29.93,SSW,200,3.0,4.0,81,0.00,,,0.00,meteohub,2013-06-18 12:56:00,
2013-06-18 09:01:00,73.0,66.6,29.93,SSW,205,0.0,4.0,80,0.00,,,0.00,meteohub,2013-06-18 13:01:00,
2013-06-18 09:06:00,73.6,67.1,29.93,SSW,197,1.0,4.0,80,0.00,,,0.00,meteohub,2013-06-18 13:06:00,
2013-06-18 09:11:00,73.4,66.6,29.93,SSW,205,4.0,4.0,79,0.00,,,0.00,meteohub,2013-06-18 13:11:00,
2013-06-18 09:16:00,73.0,66.6,29.93,SW,215,0.0,4.0,80,0.00,,,0.00,meteohub,2013-06-18 13:16:00,
2013-06-18 09:21:00,73.6,66.7,29.93,SW,236,0.0,4.0,79,0.00,,,0.00,meteohub,2013-06-18 13:21:00,
2013-06-18 09:26:00,73.9,65.5,29.93,ENE,64,4.0,4.0,75,0.00,,,0.00,meteohub,2013-06-18 13:26:00,
2013-06-18 09:31:00,73.0,64.6,29.93,NE,56,5.0,5.0,75,0.00,,,0.00,meteohub,2013-06-18 13:31:00,
2013-06-18 09:36:00,72.9,65.3,29.93,ESE,120,4.0,6.0,77,0.00,,,0.00,meteohub,2013-06-18 13:36:00,
2013-06-18 09:41:00,72.9,64.8,29.93,East,98,6.0,6.0,76,0.00,,,0.00,meteohub,2013-06-18 13:41:00,
2013-06-18 09:46:00,72.7,64.8,29.93,East,94,2.0,6.0,76,0.00,,,0.00,meteohub,2013-06-18 13:46:00,
2013-06-18 09:51:00,72.9,64.4,29.93,East,82,6.0,6.0,75,0.00,,,0.00,meteohub,2013-06-18 13:51:00,
2013-06-18 09:56:00,72.9,64.4,29.93,ESE,120,4.0,6.0,75,0.00,,,0.00,meteohub,2013-06-18 13:56:00,
2013-06-18 10:01:00,72.9,64.4,29.93,ESE,105,3.0,6.0,75,0.00,,,0.00,meteohub,2013-06-18 14:01:00,
2013-06-18 10:07:00,73.2,64.4,29.93,SE,125,3.0,6.0,74,0.00,,,0.00,meteohub,2013-06-18 14:07:00,
2013-06-18 10:12:00,73.9,64.4,29.93,ESE,118,3.0,6.0,72,0.00,,,0.00,meteohub,2013-06-18 14:12:00,
2013-06-18 10:17:00,74.5,64.0,29.93,ESE,122,2.0,6.0,70,0.00,,,0.00,meteohub,2013-06-18 14:17:00,
2013-06-18 10:22:00,74.5,63.7,29.93,ENE,78,3.0,6.0,69,0.00,,,0.00,meteohub,2013-06-18 14:22:00,
2013-06-18 10:27:00,75.0,64.2,29.92,East,84,5.0,6.0,69,0.00,,,0.00,meteohub,2013-06-18 14:27:00,
2013-06-18 10:32:00,74.7,64.2,29.92,East,91,3.0,6.0,70,0.00,,,0.00,meteohub,2013-06-18 14:32:00,
2013-06-18 10:37:00,74.7,63.9,29.92,NE,47,3.0,7.0,69,0.00,,,0.00,meteohub,2013-06-18 14:37:00,
2013-06-18 10:42:00,74.8,63.1,29.92,South,187,3.0,7.0,67,0.00,,,0.00,meteohub,2013-06-18 14:42:00,
2013-06-18 10:47:00,75.0,63.3,29.92,East,91,3.0,7.0,67,0.00,,,0.00,meteohub,2013-06-18 14:47:00,
2013-06-18 10:52:00,74.8,63.5,29.92,East,91,5.0,7.0,68,0.00,,,0.00,meteohub,2013-06-18 14:52:00,
2013-06-18 10:57:00,75.0,63.7,29.92,East,101,5.0,7.0,68,0.00,,,0.00,meteohub,2013-06-18 14:57:00,
2013-06-18 11:02:00,75.4,64.9,29.92,East,82,3.0,7.0,70,0.00,,,0.00,meteohub,2013-06-18 15:02:00,
2013-06-18 11:07:00,75.6,64.2,29.92,ESE,113,5.0,8.0,68,0.00,,,0.00,meteohub,2013-06-18 15:07:00,
2013-06-18 11:12:00,75.0,63.7,29.92,East,94,7.0,8.0,68,0.00,,,0.00,meteohub,2013-06-18 15:12:00,
2013-06-18 11:17:00,74.8,63.5,29.92,East,90,8.0,9.0,68,0.00,,,0.00,meteohub,2013-06-18 15:17:00,
2013-06-18 11:22:00,74.8,64.0,29.92,SE,125,6.0,9.0,69,0.00,,,0.00,meteohub,2013-06-18 15:22:00,
2013-06-18 11:27:00,75.0,64.2,29.92,East,84,4.0,9.0,69,0.00,,,0.00,meteohub,2013-06-18 15:27:00,
2013-06-18 11:32:00,75.6,64.2,29.92,ESE,102,8.0,9.0,68,0.00,,,0.00,meteohub,2013-06-18 15:32:00,
2013-06-18 11:37:00,75.4,63.7,29.92,ESE,103,8.0,9.0,67,0.00,,,0.00,meteohub,2013-06-18 15:37:00,
2013-06-18 11:42:00,75.4,64.0,29.92,NE,56,5.0,9.0,68,0.00,,,0.00,meteohub,2013-06-18 15:42:00,
2013-06-18 11:47:00,75.4,64.6,29.92,ESE,103,3.0,9.0,69,0.00,,,0.00,meteohub,2013-06-18 15:47:00,
2013-06-18 11:52:00,75.9,64.6,29.91,ENE,77,3.0,8.0,68,0.00,,,0.00,meteohub,2013-06-18 15:52:00,
2013-06-18 11:57:00,75.7,64.0,29.91,ESE,106,4.0,8.0,67,0.00,,,0.00,meteohub,2013-06-18 15:57:00,
2013-06-18 12:02:00,75.7,64.4,29.91,ESE,115,4.0,8.0,68,0.00,,,0.00,meteohub,2013-06-18 16:02:00,
2013-06-18 12:07:00,75.7,63.5,29.91,ENE,70,4.0,8.0,66,0.00,,,0.00,meteohub,2013-06-18 16:07:00,
2013-06-18 12:12:00,75.6,64.8,29.91,ESE,108,6.0,10.0,69,0.00,,,0.00,meteohub,2013-06-18 16:12:00,
2013-06-18 12:17:00,75.2,64.4,29.91,ENE,71,4.0,10.0,69,0.00,,,0.00,meteohub,2013-06-18 16:17:00,
2013-06-18 12:22:00,75.7,64.8,29.91,East,96,4.0,9.0,69,0.00,,,0.00,meteohub,2013-06-18 16:22:00,
2013-06-18 12:27:00,75.6,64.8,29.91,ESE,122,1.0,9.0,69,0.00,,,0.00,meteohub,2013-06-18 16:27:00,
2013-06-18 12:32:00,75.6,63.9,29.91,ESE,113,3.0,8.0,67,0.00,,,0.00,meteohub,2013-06-18 16:32:00,
2013-06-18 12:37:00,75.4,64.0,29.91,NE,52,7.0,8.0,68,0.00,,,0.00,meteohub,2013-06-18 16:37:00,
2013-06-18 12:42:00,75.0,64.2,29.91,ENE,76,4.0,9.0,69,0.00,,,0.00,meteohub,2013-06-18 16:42:00,
2013-06-18 12:47:00,74.8,64.4,29.91,East,89,7.0,9.0,70,0.00,,,0.00,meteohub,2013-06-18 16:47:00,
2013-06-18 12:52:00,74.5,64.4,29.91,SSE,148,4.0,9.0,71,0.00,,,0.00,meteohub,2013-06-18 16:52:00,
2013-06-18 12:57:00,74.8,64.8,29.91,ESE,102,6.0,11.0,71,0.00,,,0.00,meteohub,2013-06-18 16:57:00,
2013-06-18 13:02:00,74.7,65.1,29.90,East,84,6.0,11.0,72,0.00,,,0.00,meteohub,2013-06-18 17:02:00,
2013-06-18 13:07:00,74.1,65.3,29.90,SE,125,5.0,11.0,74,0.00,,,0.00,meteohub,2013-06-18 17:07:00,
2013-06-18 13:12:00,74.1,65.3,29.90,ESE,103,7.0,9.0,74,0.00,,,0.00,meteohub,2013-06-18 17:12:00,
2013-06-18 13:17:00,74.1,65.3,29.90,East,91,8.0,10.0,74,0.00,,,0.00,meteohub,2013-06-18 17:17:00,
2013-06-18 13:22:00,73.9,65.5,29.89,ENE,76,6.0,10.0,75,0.00,,,0.00,meteohub,2013-06-18 17:22:00,
2013-06-18 13:27:00,73.9,65.5,29.89,East,98,4.0,10.0,75,0.00,,,0.00,meteohub,2013-06-18 17:27:00,
2013-06-18 13:33:00,73.9,65.8,29.89,East,88,7.0,10.0,76,0.00,,,0.00,meteohub,2013-06-18 17:33:00,
2013-06-18 13:38:00,73.6,65.8,29.89,East,98,4.0,9.0,77,0.00,,,0.00,meteohub,2013-06-18 17:38:00,
2013-06-18 13:43:00,73.9,66.6,29.89,SE,138,1.0,9.0,78,0.00,,,0.00,meteohub,2013-06-18 17:43:00,
2013-06-18 13:48:00,74.5,66.4,29.89,ESE,106,6.0,9.0,76,0.00,,,0.00,meteohub,2013-06-18 17:48:00,
2013-06-18 13:53:00,73.9,66.2,29.89,ESE,118,5.0,9.0,77,0.00,,,0.00,meteohub,2013-06-18 17:53:00,
2013-06-18 13:58:00,73.9,66.6,29.89,East,92,5.0,9.0,78,0.00,,,0.00,meteohub,2013-06-18 17:58:00,
2013-06-18 14:03:00,73.2,66.7,29.89,East,89,4.0,9.0,80,0.00,,,0.00,meteohub,2013-06-18 18:03:00,
2013-06-18 14:08:00,73.0,66.9,29.88,ESE,115,2.0,8.0,81,0.00,,,0.00,meteohub,2013-06-18 18:08:00,
2013-06-18 14:13:00,72.7,66.6,29.88,SE,145,7.0,8.0,81,0.00,,,0.00,meteohub,2013-06-18 18:13:00,
2013-06-18 14:18:00,72.3,66.2,29.88,SE,128,3.0,9.0,81,0.00,,,0.00,meteohub,2013-06-18 18:18:00,
2013-06-18 14:23:00,72.1,66.4,29.87,SE,145,4.0,9.0,82,0.00,,,0.00,meteohub,2013-06-18 18:23:00,
2013-06-18 14:28:00,72.1,66.4,29.87,SSE,156,1.0,9.0,82,0.00,,,0.00,meteohub,2013-06-18 18:28:00,
2013-06-18 14:33:00,72.1,66.4,29.88,ESE,113,4.0,10.0,82,0.00,,,0.00,meteohub,2013-06-18 18:33:00,
2013-06-18 14:38:00,72.0,66.2,29.88,East,98,5.0,10.0,82,0.00,,,0.00,meteohub,2013-06-18 18:38:00,
2013-06-18 14:43:00,72.1,66.4,29.87,ESE,114,6.0,10.0,82,0.00,,,0.00,meteohub,2013-06-18 18:43:00,
2013-06-18 14:48:00,72.0,65.5,29.87,ESE,122,4.0,9.0,80,0.00,,,0.00,meteohub,2013-06-18 18:48:00,
2013-06-18 14:53:00,72.7,66.2,29.86,ESE,107,5.0,9.0,80,0.00,,,0.00,meteohub,2013-06-18 18:53:00,
2013-06-18 14:58:00,72.1,65.7,29.86,SSE,150,5.0,9.0,80,0.00,,,0.00,meteohub,2013-06-18 18:58:00,
2013-06-18 15:03:00,71.2,64.8,29.86,SSE,149,6.0,9.0,80,0.00,,,0.00,meteohub,2013-06-18 19:03:00,
2013-06-18 15:08:00,70.3,64.6,29.86,ESE,113,9.0,9.0,82,0.00,,,0.00,meteohub,2013-06-18 19:08:00,
2013-06-18 15:13:00,69.4,64.0,29.86,ESE,116,7.0,9.0,83,0.00,,,0.00,meteohub,2013-06-18 19:13:00,
2013-06-18 15:18:00,69.1,64.0,29.86,ESE,121,3.0,10.0,84,0.00,,,0.00,meteohub,2013-06-18 19:18:00,
2013-06-18 15:23:00,69.3,64.6,29.87,SE,130,4.0,10.0,85,0.00,,,0.00,meteohub,2013-06-18 19:23:00,
2013-06-18 15:28:00,68.7,63.7,29.88,SSE,148,5.0,9.0,84,0.00,,,0.00,meteohub,2013-06-18 19:28:00,
2013-06-18 15:33:00,68.7,64.4,29.88,SE,128,4.0,9.0,86,0.00,,,0.00,meteohub,2013-06-18 19:33:00,
2013-06-18 15:39:00,68.5,64.2,29.88,SE,145,5.0,8.0,86,0.00,,,0.00,meteohub,2013-06-18 19:39:00,
2013-06-18 15:44:00,68.7,64.8,29.88,South,190,7.0,7.0,87,0.00,,,0.00,meteohub,2013-06-18 19:44:00,
2013-06-18 15:49:00,68.0,64.4,29.88,South,170,8.0,8.0,88,0.00,,,0.00,meteohub,2013-06-18 19:49:00,
2013-06-18 15:54:00,67.1,63.7,29.88,South,184,3.0,10.0,89,0.00,,,0.00,meteohub,2013-06-18 19:54:00,
2013-06-18 15:59:00,66.9,63.5,29.88,SE,124,5.0,10.0,89,0.00,,,0.00,meteohub,2013-06-18 19:59:00,
2013-06-18 16:04:00,66.4,63.3,29.88,SE,137,2.0,9.0,90,0.00,,,0.00,meteohub,2013-06-18 20:04:00,
2013-06-18 16:09:00,66.6,63.9,29.88,ESE,108,4.0,8.0,91,0.00,,,0.00,meteohub,2013-06-18 20:09:00,
2013-06-18 16:14:00,66.7,63.7,29.89,ESE,114,4.0,6.0,90,0.00,,,0.00,meteohub,2013-06-18 20:14:00,
2013-06-18 16:19:00,66.7,63.7,29.88,SSE,155,3.0,5.0,90,0.00,,,0.00,meteohub,2013-06-18 20:19:00,
2013-06-18 16:24:00,67.1,64.4,29.88,East,100,0.0,5.0,91,0.00,,,0.00,meteohub,2013-06-18 20:24:00,
2013-06-18 16:29:00,67.1,64.0,29.89,ESE,102,4.0,5.0,90,0.00,,,0.00,meteohub,2013-06-18 20:29:00,
2013-06-18 16:34:00,66.9,63.9,29.89,ESE,115,0.0,5.0,90,0.00,,,0.00,meteohub,2013-06-18 20:34:00,
2013-06-18 16:39:00,67.1,64.4,29.89,SSE,148,4.0,5.0,91,0.00,,,0.00,meteohub,2013-06-18 20:39:00,
2013-06-18 16:44:00,67.3,64.6,29.89,ESE,108,2.0,5.0,91,0.00,,,0.00,meteohub,2013-06-18 20:44:00,
2013-06-18 16:49:00,66.7,63.7,29.89,East,98,6.0,6.0,90,0.00,,,0.00,meteohub,2013-06-18 20:49:00,
2013-06-18 16:54:00,66.7,64.4,29.89,ESE,106,3.0,10.0,92,0.00,,,0.00,meteohub,2013-06-18 20:54:00,
2013-06-18 16:59:00,66.4,64.0,29.90,NE,50,6.0,10.0,92,0.00,,,0.00,meteohub,2013-06-18 20:59:00,
2013-06-18 17:04:00,66.0,63.7,29.90,NE,49,4.0,10.0,92,0.00,,,0.00,meteohub,2013-06-18 21:04:00,
2013-06-18 17:09:00,65.7,63.5,29.90,East,94,7.0,8.0,93,0.00,,,0.00,meteohub,2013-06-18 21:09:00,
2013-06-18 17:14:00,65.8,63.7,29.91,NE,53,5.0,8.0,93,0.00,,,0.00,meteohub,2013-06-18 21:14:00,
2013-06-18 17:19:00,65.7,63.5,29.91,NE,55,6.0,8.0,93,0.00,,,0.00,meteohub,2013-06-18 21:19:00,
2013-06-18 17:24:00,65.7,63.9,29.91,NNE,15,6.0,8.0,94,0.00,,,0.00,meteohub,2013-06-18 21:24:00,
2013-06-18 17:29:00,65.7,63.9,29.91,East,86,4.0,8.0,94,0.00,,,0.00,meteohub,2013-06-18 21:29:00,
2013-06-18 17:34:00,65.7,63.9,29.90,NW,316,2.0,9.0,94,0.00,,,0.00,meteohub,2013-06-18 21:34:00,
2013-06-18 17:39:00,66.0,63.9,29.90,NNE,19,3.0,9.0,93,0.00,,,0.00,meteohub,2013-06-18 21:39:00,
2013-06-18 17:44:00,66.6,63.5,29.90,NE,43,6.0,10.0,90,0.00,,,0.00,meteohub,2013-06-18 21:44:00,
2013-06-18 17:49:00,66.9,62.6,29.90,NNW,340,6.0,11.0,86,0.00,,,0.00,meteohub,2013-06-18 21:49:00,
2013-06-18 17:54:00,66.9,62.2,29.91,NNW,344,10.0,17.0,85,0.00,,,0.00,meteohub,2013-06-18 21:54:00,
2013-06-18 17:59:00,66.7,61.7,29.91,NE,42,9.0,17.0,84,0.00,,,0.00,meteohub,2013-06-18 21:59:00,
2013-06-18 18:04:00,66.4,61.0,29.91,North,1,11.0,18.0,83,0.00,,,0.00,meteohub,2013-06-18 22:04:00,
2013-06-18 18:09:00,66.0,60.6,29.92,NW,326,10.0,18.0,83,0.00,,,0.00,meteohub,2013-06-18 22:09:00,
2013-06-18 18:15:00,65.5,61.2,29.92,NNW,329,15.0,21.0,86,0.00,,,0.00,meteohub,2013-06-18 22:15:00,
2013-06-18 18:20:00,64.8,60.4,29.92,North,359,12.0,21.0,86,0.00,,,0.00,meteohub,2013-06-18 22:20:00,
2013-06-18 18:25:00,64.2,60.3,29.91,NE,39,8.0,22.0,87,0.00,,,0.00,meteohub,2013-06-18 22:25:00,
2013-06-18 18:30:00,64.0,60.1,29.90,NE,47,12.0,22.0,87,0.00,,,0.00,meteohub,2013-06-18 22:30:00,
2013-06-18 18:35:00,63.9,60.3,29.90,ENE,73,4.0,20.0,88,0.00,,,0.00,meteohub,2013-06-18 22:35:00,
2013-06-18 18:40:00,63.7,60.4,29.90,NE,38,4.0,17.0,89,0.00,,,0.00,meteohub,2013-06-18 22:40:00,
2013-06-18 18:45:00,63.3,60.3,29.89,East,85,4.0,17.0,90,0.00,,,0.00,meteohub,2013-06-18 22:45:00,
2013-06-18 18:50:00,63.1,59.9,29.89,NE,53,8.0,15.0,89,0.00,,,0.00,meteohub,2013-06-18 22:50:00,
2013-06-18 18:55:00,63.0,59.7,29.88,NE,40,12.0,16.0,89,0.00,,,0.00,meteohub,2013-06-18 22:55:00,
2013-06-18 19:00:00,62.8,59.5,29.87,East,79,5.0,16.0,89,0.00,,,0.00,meteohub,2013-06-18 23:00:00,
2013-06-18 19:05:00,62.8,59.5,29.86,ENE,65,3.0,16.0,89,0.00,,,0.00,meteohub,2013-06-18 23:05:00,
2013-06-18 19:10:00,62.8,59.5,29.86,East,100,3.0,16.0,89,0.00,,,0.00,meteohub,2013-06-18 23:10:00,
2013-06-18 19:15:00,62.8,59.5,29.87,NNE,23,6.0,13.0,89,0.00,,,0.00,meteohub,2013-06-18 23:15:00,
2013-06-18 19:20:00,62.8,59.5,29.87,NNE,31,9.0,12.0,89,0.00,,,0.00,meteohub,2013-06-18 23:20:00,
2013-06-18 19:25:00,62.8,59.5,29.87,NE,46,7.0,14.0,89,0.00,,,0.00,meteohub,2013-06-18 23:25:00,
2013-06-18 19:30:00,62.4,59.4,29.88,NNE,29,1.0,15.0,90,0.00,,,0.00,meteohub,2013-06-18 23:30:00,
2013-06-18 19:35:00,62.6,59.5,29.88,ENE,58,4.0,15.0,90,0.00,,,0.00,meteohub,2013-06-18 23:35:00,
2013-06-18 19:40:00,62.6,59.5,29.89,ENE,77,5.0,10.0,90,0.00,,,0.00,meteohub,2013-06-18 23:40:00,
2013-06-18 19:45:00,62.4,59.2,29.89,NE,40,3.0,10.0,89,0.00,,,0.00,meteohub,2013-06-18 23:45:00,
2013-06-18 19:50:00,62.6,59.5,29.89,NNE,23,2.0,7.0,90,0.00,,,0.00,meteohub,2013-06-18 23:50:00,
2013-06-18 19:55:00,62.6,59.5,29.90,NE,54,5.0,7.0,90,0.00,,,0.00,meteohub,2013-06-18 23:55:00,
2013-06-18 20:00:00,62.4,59.4,29.90,NNE,23,0.0,7.0,90,0.00,,,0.00,meteohub,2013-06-19 00:00:00,
2013-06-18 20:05:00,62.4,59.7,29.90,NNE,30,8.0,9.0,91,0.00,,,0.00,meteohub,2013-06-19 00:05:00,
2013-06-18 20:10:00,62.4,59.7,29.90,North,352,4.0,9.0,91,0.00,,,0.00,meteohub,2013-06-19 00:10:00,
2013-06-18 20:15:00,62.2,59.5,29.90,NNW,347,5.0,13.0,91,0.00,,,0.00,meteohub,2013-06-19 00:15:00,
2013-06-18 20:20:00,62.1,59.7,29.91,North,356,7.0,13.0,92,0.00,,,0.00,meteohub,2013-06-19 00:20:00,
2013-06-18 20:26:00,61.9,59.5,29.91,ENE,74,4.0,13.0,92,0.00,,,0.00,meteohub,2013-06-19 00:26:00,
2013-06-18 20:31:00,61.7,59.7,29.91,East,82,2.0,12.0,93,0.01,,,0.01,meteohub,2013-06-19 00:31:00,
2013-06-18 20:36:00,61.5,59.7,29.91,East,94,4.0,12.0,94,0.01,,,0.01,meteohub,2013-06-19 00:36:00,
2013-06-18 20:41:00,61.3,59.5,29.92,NNE,30,3.0,11.0,94,0.02,,,0.02,meteohub,2013-06-19 00:41:00,
2013-06-18 20:46:00,61.3,59.9,29.92,NNE,23,3.0,7.0,95,0.03,,,0.03,meteohub,2013-06-19 00:46:00,
2013-06-18 20:51:00,61.2,59.7,29.92,NNE,23,3.0,7.0,95,0.03,,,0.03,meteohub,2013-06-19 00:51:00,
2013-06-18 20:56:00,61.0,59.5,29.92,North,9,2.0,7.0,95,0.04,,,0.04,meteohub,2013-06-19 00:56:00,
2013-06-18 21:01:00,61.0,59.9,29.92,NNW,342,3.0,7.0,96,0.04,,,0.04,meteohub,2013-06-19 01:01:00,
2013-06-18 21:06:00,60.6,59.5,29.92,NNE,32,5.0,9.0,96,0.05,,,0.05,meteohub,2013-06-19 01:06:00,
2013-06-18 21:11:00,60.6,59.5,29.92,NE,41,5.0,9.0,96,0.05,,,0.05,meteohub,2013-06-19 01:11:00,
2013-06-18 21:16:00,60.4,59.4,29.92,North,0,5.0,9.0,96,0.05,,,0.05,meteohub,2013-06-19 01:16:00,
2013-06-18 21:21:00,60.3,59.2,29.92,NE,41,5.0,8.0,96,0.05,,,0.05,meteohub,2013-06-19 01:21:00,
2013-06-18 21:26:00,60.3,59.2,29.92,NE,37,4.0,8.0,96,0.05,,,0.05,meteohub,2013-06-19 01:26:00,
2013-06-18 21:31:00,60.3,59.2,29.92,NE,52,3.0,9.0,96,0.05,,,0.06,meteohub,2013-06-19 01:31:00,
2013-06-18 21:36:00,60.3,59.2,29.92,NE,40,3.0,9.0,96,0.04,,,0.06,meteohub,2013-06-19 01:36:00,
2013-06-18 21:41:00,60.1,59.0,29.91,North,1,6.0,9.0,96,0.04,,,0.06,meteohub,2013-06-19 01:41:00,
2013-06-18 21:46:00,60.1,59.2,29.91,NE,35,6.0,11.0,97,0.03,,,0.06,meteohub,2013-06-19 01:46:00,
2013-06-18 21:51:00,59.9,59.0,29.91,NNE,30,5.0,11.0,97,0.03,,,0.06,meteohub,2013-06-19 01:51:00,
2013-06-18 21:56:00,59.7,58.8,29.91,NNW,345,3.0,11.0,97,0.03,,,0.07,meteohub,2013-06-19 01:56:00,
2013-06-18 22:01:00,59.9,59.0,29.91,North,4,4.0,12.0,97,0.02,,,0.07,meteohub,2013-06-19 02:01:00,
2013-06-18 22:06:00,59.9,59.0,29.91,NE,44,3.0,12.0,97,0.02,,,0.07,meteohub,2013-06-19 02:06:00,
2013-06-18 22:11:00,59.9,59.0,29.91,ENE,65,1.0,10.0,97,0.03,,,0.08,meteohub,2013-06-19 02:11:00,
2013-06-18 22:16:00,59.9,59.0,29.91,NE,54,0.0,6.0,97,0.03,,,0.08,meteohub,2013-06-19 02:16:00,
2013-06-18 22:21:00,59.9,59.0,29.91,North,0,4.0,7.0,97,0.03,,,0.08,meteohub,2013-06-19 02:21:00,
2013-06-18 22:26:00,59.7,58.8,29.91,NW,307,4.0,9.0,97,0.03,,,0.09,meteohub,2013-06-19 02:26:00,
2013-06-18 22:31:00,59.7,58.8,29.91,NNW,330,3.0,10.0,97,0.03,,,0.09,meteohub,2013-06-19 02:31:00,
2013-06-18 22:36:00,59.7,58.8,29.91,NNW,327,6.0,10.0,97,0.03,,,0.09,meteohub,2013-06-19 02:36:00,
2013-06-18 22:41:00,59.7,59.2,29.91,North,5,3.0,10.0,98,0.04,,,0.10,meteohub,2013-06-19 02:41:00,
2013-06-18 22:46:00,59.7,59.2,29.91,ENE,63,5.0,8.0,98,0.04,,,0.10,meteohub,2013-06-19 02:46:00,
2013-06-18 22:51:00,59.7,59.2,29.90,NW,316,4.0,8.0,98,0.04,,,0.11,meteohub,2013-06-19 02:51:00,
2013-06-18 22:56:00,59.7,59.2,29.90,NNE,31,6.0,9.0,98,0.04,,,0.11,meteohub,2013-06-19 02:56:00,
2013-06-18 23:01:00,59.9,59.4,29.90,North,358,0.0,10.0,98,0.04,,,0.11,meteohub,2013-06-19 03:01:00,
2013-06-18 23:06:00,59.9,59.4,29.90,NE,49,6.0,10.0,98,0.04,,,0.11,meteohub,2013-06-19 03:06:00,
2013-06-18 23:11:00,59.7,59.2,29.90,NNE,27,7.0,11.0,98,0.04,,,0.12,meteohub,2013-06-19 03:11:00,
2013-06-18 23:16:00,59.7,59.2,29.90,North,0,4.0,11.0,98,0.04,,,0.12,meteohub,2013-06-19 03:16:00,
2013-06-18 23:22:00,59.7,59.2,29.89,NNE,29,5.0,11.0,98,0.03,,,0.12,meteohub,2013-06-19 03:22:00,
2013-06-18 23:27:00,59.7,59.2,29.89,NE,46,3.0,11.0,98,0.03,,,0.12,meteohub,2013-06-19 03:27:00,
2013-06-18 23:32:00,59.9,59.4,29.88,North,3,5.0,13.0,98,0.03,,,0.12,meteohub,2013-06-19 03:32:00,
2013-06-18 23:37:00,59.9,59.4,29.88,NW,323,5.0,13.0,98,0.03,,,0.12,meteohub,2013-06-19 03:37:00,
2013-06-18 23:42:00,60.1,59.5,29.88,North,4,6.0,13.0,98,0.02,,,0.12,meteohub,2013-06-19 03:42:00,
2013-06-18 23:47:00,59.9,59.4,29.88,NNE,13,2.0,12.0,98,0.02,,,0.12,meteohub,2013-06-19 03:47:00,
2013-06-18 23:52:00,59.9,59.4,29.88,North,4,6.0,11.0,98,0.01,,,0.12,meteohub,2013-06-19 03:52:00,
2013-06-18 23:57:00,59.9,59.4,29.88,NNW,339,4.0,10.0,98,0.01,,,0.12,meteohub,2013-06-19 03:57:00,